Time;durP1;ratioP1;P1;durP2;ratioP2;P2;SDS_P1;SDS_P2;PMS_P1;PMS_P2;Temp;Humidity;BMP_temperature;BMP_pressure;BME280_temperature;BME280_humidity;BME280_pressure;Samples;Min_cycle;Max_cycle;Signal;HPM_P1;HPM_P2
2022/06/11 00:01:51;;;;;;;;;6.50;6.00;;;;;19.28;61.55;101907.56;5035278;28;45317;-85
2022/06/11 00:04:26;;;;;;;;;5.25;5.25;;;;;19.26;61.98;101905.91;5033049;28;45534;-85
2022/06/11 00:06:56;;;;;;;;;5.50;5.50;;;;;19.26;62.04;101909.41;5034248;28;45482;-85
2022/06/11 00:09:22;;;;;;;;;5.50;4.50;;;;;19.23;61.80;101911.34;5037413;28;45354;-85
2022/06/11 00:11:49;;;;;;;;;6.75;5.00;;;;;19.20;61.51;101907.03;5034741;28;45515;-84
2022/06/11 00:14:14;;;;;;;;;4.25;4.25;;;;;19.19;62.05;101907.97;5030266;28;45310;-85
2022/06/11 00:16:41;;;;;;;;;6.25;5.00;;;;;19.17;61.67;101909.84;5035075;28;45368;-85
2022/06/11 00:19:06;;;;;;;;;5.75;4.00;;;;;19.17;62.51;101909.84;5033552;28;45407;-85
2022/06/11 00:21:34;;;;;;;;;3.75;3.75;;;;;19.16;62.20;101905.47;5064609;28;45255;-85
2022/06/11 00:23:59;;;;;;;;;4.50;4.00;;;;;19.11;61.99;101904.81;5037613;28;45578;-85
2022/06/11 00:26:25;;;;;;;;;8.25;6.25;;;;;19.08;62.02;101897.06;5021683;28;48577;-85
2022/06/11 00:28:50;;;;;;;;;6.25;4.00;;;;;19.05;62.33;101907.75;5026207;28;45582;-85
2022/06/11 00:31:16;;;;;;;;;5.75;5.75;;;;;19.03;62.64;101910.47;5034927;28;53703;-84
2022/06/11 00:33:42;;;;;;;;;3.25;3.25;;;;;19.02;62.44;101907.88;5036126;28;45399;-85
2022/06/11 00:36:08;;;;;;;;;6.00;4.25;;;;;18.99;62.48;101903.63;5030005;28;45693;-85
2022/06/11 00:38:34;;;;;;;;;5.75;4.25;;;;;18.99;62.28;101906.25;5027629;28;45652;-84
2022/06/11 00:41:00;;;;;;;;;4.25;4.00;;;;;18.99;62.44;101908.91;5025034;28;45470;-85
2022/06/11 00:43:27;;;;;;;;;7.75;6.00;;;;;19.00;62.61;101904.47;5033166;28;50411;-85
2022/06/11 00:46:35;;;;;;;;;5.00;5.00;;;;;18.99;63.04;101908.06;5033647;28;45455;-85
2022/06/11 00:49:02;;;;;;;;;4.50;4.50;;;;;18.93;62.36;101899.47;5033324;28;45376;-85
2022/06/11 00:51:27;;;;;;;;;5.50;4.25;;;;;18.93;62.92;101906.56;5034879;28;45340;-85
2022/06/11 00:53:57;;;;;;;;;6.00;5.00;;;;;18.89;62.88;101904.97;5032271;28;45581;-84
2022/06/11 00:56:29;;;;;;;;;5.00;5.00;;;;;18.83;62.77;101906.09;5033354;28;45569;-85
2022/06/11 00:58:59;;;;;;;;;5.75;5.25;;;;;18.80;63.21;101905.38;5033336;28;45393;-85
2022/06/11 01:01:24;;;;;;;;;5.75;5.75;;;;;18.77;63.31;101908.97;5032643;28;45476;-85
2022/06/11 01:03:56;;;;;;;;;4.50;4.50;;;;;18.73;63.35;101900.34;5032391;28;45299;-85
2022/06/11 01:06:37;;;;;;;;;4.00;4.00;;;;;18.71;63.15;101904.00;5034846;28;45428;-85
2022/06/11 01:09:15;;;;;;;;;5.00;4.00;;;;;18.68;63.50;101906.75;5031815;28;45254;-85
2022/06/11 01:12:19;;;;;;;;;3.00;3.00;;;;;18.66;63.49;101903.31;5026702;28;45622;-85
2022/06/11 01:14:49;;;;;;;;;5.50;5.00;;;;;18.63;63.47;101899.06;4991401;28;45484;-85
2022/06/11 01:17:53;;;;;;;;;5.00;3.75;;;;;18.62;63.47;101897.34;4976924;28;47040;-84
2022/06/11 01:20:29;;;;;;;;;4.00;4.00;;;;;18.64;63.37;101892.84;4993061;28;45885;-85
2022/06/11 01:23:24;;;;;;;;;4.75;3.75;;;;;18.66;63.19;101891.00;4994309;28;45566;-85
2022/06/11 01:25:53;;;;;;;;;3.75;3.75;;;;;18.65;63.45;101891.94;4996453;28;45511;-85
2022/06/11 01:28:37;;;;;;;;;5.00;5.00;;;;;18.66;63.29;101895.41;4997232;28;46182;-84
2022/06/11 01:31:19;;;;;;;;;5.25;4.00;;;;;18.64;63.37;101899.91;4996653;28;45287;-84
2022/06/11 01:33:54;;;;;;;;;4.75;3.00;;;;;18.61;63.48;101892.13;4997466;28;45465;-84
2022/06/11 01:36:28;;;;;;;;;4.50;4.50;;;;;18.58;63.77;101901.03;4996388;28;45522;-85
2022/06/11 01:39:03;;;;;;;;;4.50;4.00;;;;;18.56;63.53;101902.88;4974851;28;46189;-84
2022/06/11 01:41:33;;;;;;;;;9.25;6.25;;;;;18.55;63.64;101901.16;4991422;28;45588;-84
2022/06/11 01:44:03;;;;;;;;;5.00;4.75;;;;;18.50;63.75;101903.16;4996103;28;45350;-84
2022/06/11 01:46:51;;;;;;;;;6.25;4.00;;;;;18.46;63.93;101899.81;4996428;28;45476;-85
2022/06/11 01:49:21;;;;;;;;;4.00;4.00;;;;;18.46;64.02;101904.19;4981492;28;45392;-84
2022/06/11 01:52:11;;;;;;;;;3.50;3.50;;;;;18.43;63.84;101902.56;5019794;28;45453;-85
2022/06/11 01:54:46;;;;;;;;;5.00;4.00;;;;;18.40;64.26;101904.47;5032259;28;45491;-85
2022/06/11 01:57:45;;;;;;;;;5.75;4.50;;;;;18.34;64.05;101902.97;5033457;28;45587;-85
2022/06/11 02:00:16;;;;;;;;;5.75;3.75;;;;;18.32;63.92;101910.06;5034906;28;45476;-83
2022/06/11 02:02:41;;;;;;;;;4.00;3.50;;;;;18.32;64.40;101910.06;5035943;28;45787;-82
2022/06/11 02:05:19;;;;;;;;;4.50;3.75;;;;;18.30;64.51;101912.78;5035882;28;45424;-84
2022/06/11 02:08:11;;;;;;;;;4.75;4.00;;;;;18.27;64.57;101915.53;5034812;28;45415;-83
2022/06/11 02:10:54;;;;;;;;;6.25;4.25;;;;;18.25;64.61;101912.09;5036098;28;46912;-83
2022/06/11 02:13:40;;;;;;;;;5.75;5.00;;;;;18.25;64.56;101909.47;5022416;28;45817;-84
2022/06/11 02:16:28;;;;;;;;;4.75;4.75;;;;;18.21;64.85;101914.94;5018559;28;45485;-83
2022/06/11 02:18:54;;;;;;;;;4.75;4.75;;;;;18.14;64.63;101911.72;5034691;28;45270;-83
2022/06/11 02:21:24;;;;;;;;;6.25;4.00;;;;;18.10;65.20;101913.59;5033239;28;45445;-83
2022/06/11 02:23:53;;;;;;;;;8.75;4.00;;;;;18.07;65.00;101904.97;5030642;28;45368;-83
2022/06/11 02:26:30;;;;;;;;;4.00;4.00;;;;;18.06;65.20;101909.41;5030060;28;45484;-84
2022/06/11 02:28:57;;;;;;;;;5.50;4.00;;;;;18.05;65.04;101907.66;5037650;28;45562;-83
2022/06/11 02:31:26;;;;;;;;;4.00;4.00;;;;;18.03;64.83;101908.66;5033119;28;46339;-83
2022/06/11 02:33:52;;;;;;;;;5.00;3.25;;;;;18.01;65.19;101906.09;5034622;28;45364;-83
2022/06/11 02:36:24;;;;;;;;;5.00;4.00;;;;;17.98;64.91;101915.00;5031901;28;45468;-83
2022/06/11 02:38:51;;;;;;;;;6.00;4.25;;;;;17.95;65.48;101920.38;5028093;28;45485;-84
2022/06/11 02:41:29;;;;;;;;;5.75;4.75;;;;;17.96;64.79;101915.97;5026037;28;46333;-83
2022/06/11 02:43:55;;;;;;;;;5.00;4.00;;;;;17.93;65.45;101927.50;5029756;28;45480;-84
2022/06/11 02:49:06;;;;;;;;;6.00;5.00;;;;;17.86;65.51;101928.66;5019536;28;45325;-84
2022/06/11 02:51:31;;;;;;;;;4.75;4.75;;;;;17.85;65.71;101926.06;5032395;28;46498;-83
2022/06/11 02:53:57;;;;;;;;;5.50;5.00;;;;;17.85;65.51;101929.59;5029922;28;45346;-84
2022/06/11 02:56:23;;;;;;;;;7.50;5.50;;;;;17.84;66.01;101927.81;5028405;28;45468;-84
2022/06/11 02:58:49;;;;;;;;;4.00;4.00;;;;;17.82;65.48;101932.31;5035053;28;45451;-84
2022/06/11 03:01:15;;;;;;;;;4.25;4.00;;;;;17.80;65.47;101929.72;5032988;28;46339;-84
2022/06/11 03:03:41;;;;;;;;;5.25;5.00;;;;;17.78;65.68;101926.28;5036301;28;45220;-84
2022/06/11 03:06:06;;;;;;;;;7.50;4.75;;;;;17.78;65.92;101942.09;5034761;28;54761;-84
2022/06/11 03:08:32;;;;;;;;;7.75;5.50;;;;;17.75;65.86;101944.84;5034540;28;46702;-84
2022/06/11 03:10:58;;;;;;;;;9.00;4.50;;;;;17.73;65.75;101938.78;5033358;28;47559;-84
2022/06/11 03:13:24;;;;;;;;;5.00;5.00;;;;;17.75;65.88;101942.22;5034825;28;45477;-84
2022/06/11 03:15:50;;;;;;;;;5.75;4.50;;;;;17.75;65.43;101939.56;5034181;28;45292;-83
2022/06/11 03:18:16;;;;;;;;;6.00;4.00;;;;;17.79;65.87;101946.47;5036070;28;60317;-84
2022/06/11 03:20:41;;;;;;;;;6.25;6.25;;;;;17.78;65.89;101942.09;5028450;28;47887;-84
2022/06/11 03:23:07;;;;;;;;;5.00;4.00;;;;;17.77;65.95;101939.53;5034525;28;45524;-84
2022/06/11 03:25:33;;;;;;;;;6.00;4.00;;;;;17.77;66.11;101942.16;5033323;28;45259;-84
2022/06/11 03:28:04;;;;;;;;;7.00;5.00;;;;;17.77;66.09;101943.03;5033031;28;45396;-84
2022/06/11 03:30:29;;;;;;;;;5.75;5.75;;;;;17.79;66.46;101949.09;5036097;28;45388;-83
2022/06/11 03:32:55;;;;;;;;;5.25;4.75;;;;;17.80;65.86;101942.03;5034871;28;48633;-84
2022/06/11 03:35:20;;;;;;;;;7.00;5.00;;;;;17.80;65.95;101952.56;5033045;28;45470;-83
2022/06/11 03:37:46;;;;;;;;;6.25;5.00;;;;;17.77;66.47;101950.06;5034456;28;45520;-84
2022/06/11 03:40:11;;;;;;;;;6.25;5.00;;;;;17.75;66.15;101952.75;5033196;28;47950;-84
2022/06/11 03:42:37;;;;;;;;;4.25;4.25;;;;;17.73;66.53;101953.72;5036613;28;45446;-84
2022/06/11 03:45:04;;;;;;;;;6.00;6.00;;;;;17.70;66.35;101959.13;5034635;28;50117;-84
2022/06/11 03:47:29;;;;;;;;;5.25;4.75;;;;;17.67;66.39;101961.88;5028536;28;45451;-83
2022/06/11 03:49:54;;;;;;;;;5.00;5.00;;;;;17.67;66.38;101961.88;5024717;28;65649;-84
2022/06/11 03:52:20;;;;;;;;;5.00;4.25;;;;;17.65;66.47;101967.22;5035904;28;45455;-84
2022/06/11 03:54:46;;;;;;;;;3.50;3.50;;;;;17.64;67.10;101967.25;5041739;28;52495;-84
2022/06/11 03:57:11;;;;;;;;;5.00;4.00;;;;;17.67;66.81;101969.78;5036135;28;45291;-84
2022/06/11 03:59:36;;;;;;;;;4.50;4.50;;;;;17.70;67.23;101981.06;5033789;28;46383;-83
2022/06/11 04:02:02;;;;;;;;;4.50;4.50;;;;;17.72;66.77;101984.50;5032823;28;68226;-84
2022/06/11 04:04:28;;;;;;;;;7.75;6.00;;;;;17.71;67.08;101974.84;5032598;28;45459;-84
2022/06/11 04:06:56;;;;;;;;;6.75;6.00;;;;;17.70;66.87;101981.06;5032003;28;45483;-84
2022/06/11 04:09:27;;;;;;;;;5.00;5.00;;;;;17.70;67.43;101986.31;5034727;28;45493;-84
2022/06/11 04:11:53;;;;;;;;;10.25;5.00;;;;;17.68;66.74;101996.06;5033739;28;45470;-84
2022/06/11 04:14:18;;;;;;;;;5.50;4.75;;;;;17.68;67.13;101989.91;5033961;28;45442;-84
2022/06/11 04:16:51;;;;;;;;;4.75;4.00;;;;;17.68;67.24;101997.81;5034066;28;45310;-84
2022/06/11 04:19:24;;;;;;;;;8.00;5.50;;;;;17.70;66.83;102007.38;5030640;28;46639;-84
2022/06/11 04:21:51;;;;;;;;;8.00;6.75;;;;;17.72;67.08;102013.44;5033011;28;48496;-85
2022/06/11 04:24:17;;;;;;;;;7.75;6.75;;;;;17.75;67.10;102015.09;5035813;28;45466;-84
2022/06/11 04:26:45;;;;;;;;;8.00;7.00;;;;;17.73;67.34;102004.63;5029457;28;45266;-84
2022/06/11 04:29:13;;;;;;;;;5.75;4.00;;;;;17.77;66.96;102021.16;5033647;28;46290;-84
2022/06/11 04:31:39;;;;;;;;;7.00;6.00;;;;;17.79;66.96;102017.56;5032242;28;45455;-84
2022/06/11 04:34:05;;;;;;;;;5.00;5.00;;;;;17.78;67.45;102015.84;5032619;28;45398;-84
2022/06/11 04:36:33;;;;;;;;;6.75;5.25;;;;;17.74;67.74;102024.78;5031234;28;45416;-84
2022/06/11 04:38:58;;;;;;;;;6.00;5.75;;;;;17.74;67.52;102023.94;5028421;28;48659;-84
2022/06/11 04:41:24;;;;;;;;;10.25;7.50;;;;;17.72;67.36;102029.25;5026925;28;45372;-84
2022/06/11 04:43:50;;;;;;;;;7.00;5.50;;;;;17.75;67.54;102031.75;5033240;28;45303;-83
2022/06/11 04:46:16;;;;;;;;;5.25;5.25;;;;;17.80;67.80;102031.59;5033557;28;45548;-84
2022/06/11 04:48:42;;;;;;;;;6.00;6.00;;;;;17.84;67.67;102032.31;5030329;28;47283;-83
2022/06/11 04:51:09;;;;;;;;;8.00;7.00;;;;;17.91;67.04;102032.06;5032914;28;45454;-83
2022/06/11 04:53:34;;;;;;;;;7.00;5.00;;;;;17.93;67.47;102026.72;5033421;28;45335;-83
2022/06/11 04:56:00;;;;;;;;;7.75;5.00;;;;;17.95;66.84;102024.91;5031404;28;45586;-83
2022/06/11 04:58:25;;;;;;;;;6.00;6.00;;;;;17.98;67.14;102030.06;5032689;28;61329;-84
2022/06/11 05:00:51;;;;;;;;;6.25;5.00;;;;;18.01;66.89;102029.91;5036752;28;45388;-84
2022/06/11 05:03:16;;;;;;;;;5.00;5.00;;;;;18.02;66.91;102029.00;5038471;28;45432;-84
2022/06/11 05:05:42;;;;;;;;;5.50;5.50;;;;;18.04;67.34;102031.59;5036072;28;60472;-85
2022/06/11 05:08:08;;;;;;;;;10.75;6.50;;;;;17.97;67.38;102037.06;5029773;28;46254;-84
2022/06/11 05:10:34;;;;;;;;;5.50;4.00;;;;;17.95;67.27;102038.06;5037099;28;45289;-84
2022/06/11 05:13:01;;;;;;;;;7.25;6.00;;;;;17.97;67.37;102044.97;5051989;28;45575;-85
2022/06/11 05:15:27;;;;;;;;;6.00;6.00;;;;;17.98;67.11;102028.25;5037841;28;45560;-84
2022/06/11 05:17:53;;;;;;;;;4.25;4.25;;;;;18.06;67.21;102033.22;5031714;28;46437;-85
2022/06/11 05:20:19;;;;;;;;;6.50;4.75;;;;;18.08;66.90;102030.53;5036554;28;45714;-85
2022/06/11 05:22:45;;;;;;;;;6.00;5.00;;;;;18.14;67.07;102038.19;5036857;28;45530;-84
2022/06/11 05:25:12;;;;;;;;;10.50;6.00;;;;;18.18;67.00;102032.75;5036772;28;45447;-84
2022/06/11 05:27:40;;;;;;;;;8.50;7.00;;;;;18.22;67.06;102032.59;5037015;28;45790;-85
2022/06/11 05:30:15;;;;;;;;;12.75;8.00;;;;;18.23;66.99;102034.34;5030759;28;45392;-85
2022/06/11 05:32:41;;;;;;;;;11.75;7.50;;;;;18.20;67.14;102035.28;5027841;28;45407;-85
2022/06/11 05:35:12;;;;;;;;;10.25;8.00;;;;;18.16;66.93;102031.94;5033282;28;45431;-83
2022/06/11 05:37:37;;;;;;;;;8.50;6.25;;;;;18.14;67.44;102022.38;5018245;28;45468;-84
2022/06/11 05:40:05;;;;;;;;;5.75;5.75;;;;;18.12;67.08;102029.50;5034357;28;45468;-84
2022/06/11 05:42:31;;;;;;;;;6.00;5.50;;;;;18.15;67.49;102024.97;5033535;28;45357;-84
2022/06/11 05:44:56;;;;;;;;;7.00;6.25;;;;;18.22;66.98;102027.34;5063113;28;45489;-84
2022/06/11 05:47:24;;;;;;;;;7.25;6.50;;;;;18.26;66.82;102027.16;5035923;28;45401;-85
2022/06/11 05:49:51;;;;;;;;;9.75;6.00;;;;;18.25;66.62;102033.34;5036454;28;45506;-85
2022/06/11 05:52:21;;;;;;;;;10.75;7.00;;;;;18.27;66.82;102031.50;5033332;28;45524;-85
2022/06/11 05:54:48;;;;;;;;;6.25;6.25;;;;;18.32;66.75;102037.44;5017727;28;45455;-85
2022/06/11 05:57:16;;;;;;;;;7.00;6.00;;;;;18.38;67.17;102033.69;5016363;28;46233;-85
2022/06/11 05:59:44;;;;;;;;;7.50;5.50;;;;;18.45;66.28;102036.94;5032874;28;45373;-85
2022/06/11 06:02:13;;;;;;;;;3.75;3.75;;;;;18.52;65.56;102038.41;5033131;28;45369;-84
2022/06/11 06:04:38;;;;;;;;;5.00;4.75;;;;;18.58;65.30;102043.44;5025085;28;45541;-84
2022/06/11 06:07:07;;;;;;;;;6.25;3.75;;;;;18.63;65.28;102040.56;5034351;28;46206;-85
2022/06/11 06:09:33;;;;;;;;;5.00;4.00;;;;;18.66;65.07;102037.81;5038722;28;45713;-86
2022/06/11 06:11:59;;;;;;;;;4.75;3.25;;;;;18.69;65.19;102045.63;5032091;28;45292;-85
2022/06/11 06:14:24;;;;;;;;;5.00;3.75;;;;;18.74;64.70;102039.22;5061197;28;56657;-85
2022/06/11 06:16:49;;;;;;;;;4.25;3.50;;;;;18.79;64.23;102049.56;5035211;28;64828;-85
2022/06/11 06:19:15;;;;;;;;;4.25;4.25;;;;;18.82;64.31;102049.47;5034785;28;61614;-84
2022/06/11 06:21:40;;;;;;;;;5.50;4.75;;;;;18.85;64.13;102043.19;5036467;28;55251;-84
2022/06/11 06:24:06;;;;;;;;;4.25;3.75;;;;;18.84;64.16;102049.41;5035278;28;45577;-83
2022/06/11 06:26:32;;;;;;;;;7.00;5.00;;;;;18.84;64.43;102050.25;5030856;28;45987;-83
2022/06/11 06:28:58;;;;;;;;;4.25;4.25;;;;;18.87;64.25;102055.41;5041956;28;45471;-85
2022/06/11 06:31:23;;;;;;;;;6.00;5.00;;;;;18.90;64.04;102057.06;5045836;28;55408;-81
2022/06/11 06:33:50;;;;;;;;;5.75;3.75;;;;;18.92;64.28;102050.78;5035907;28;45337;-82
2022/06/11 06:36:16;;;;;;;;;6.50;5.00;;;;;18.98;64.25;102049.69;5036856;28;45664;-81
2022/06/11 06:38:43;;;;;;;;;6.00;4.00;;;;;19.03;64.31;102052.09;5036153;28;45375;-80
2022/06/11 06:41:08;;;;;;;;;3.00;3.00;;;;;19.06;63.26;102055.47;5040302;28;45512;-82
2022/06/11 06:43:34;;;;;;;;;7.50;4.00;;;;;19.11;62.99;102058.78;5045537;28;45560;-81
2022/06/11 06:46:00;;;;;;;;;7.50;4.50;;;;;19.17;63.02;102048.84;5035493;28;66223;-86
2022/06/11 06:48:26;;;;;;;;;5.00;4.00;;;;;19.31;62.97;102055.22;5022983;28;45889;-86
2022/06/11 06:50:52;;;;;;;;;4.00;2.50;;;;;19.50;62.66;102062.31;5036226;28;47017;-84
2022/06/11 06:53:18;;;;;;;;;5.25;5.00;;;;;19.69;61.83;102059.72;5035828;28;45564;-83
2022/06/11 06:55:44;;;;;;;;;2.00;2.00;;;;;19.90;61.35;102058.72;5034957;28;46076;-84
2022/06/11 06:58:09;;;;;;;;;2.00;2.00;;;;;20.11;60.94;102063.91;5031657;28;45738;-84
2022/06/11 07:00:36;;;;;;;;;3.00;3.00;;;;;20.31;60.75;102053.22;5031742;28;62615;-85
2022/06/11 07:03:01;;;;;;;;;5.75;2.00;;;;;20.47;60.16;102060.41;5034739;28;45593;-85
2022/06/11 07:05:27;;;;;;;;;4.75;2.00;;;;;20.61;59.48;102062.38;5034290;28;46104;-83
2022/06/11 07:07:53;;;;;;;;;4.00;3.00;;;;;20.74;58.66;102066.13;5024552;28;45495;-83
2022/06/11 07:10:21;;;;;;;;;4.75;2.00;;;;;20.80;58.19;102064.97;5034739;28;45532;-85
2022/06/11 07:12:47;;;;;;;;;4.00;2.00;;;;;20.90;58.17;102063.56;5032662;28;45451;-87
2022/06/11 07:15:13;;;;;;;;;2.75;2.75;;;;;20.96;57.25;102067.69;5044189;28;45484;-87
2022/06/11 07:17:46;;;;;;;;;1.50;1.00;;;;;21.00;56.67;102056.84;5043778;28;45660;-88
2022/06/11 07:20:16;;;;;;;;;2.75;1.00;;;;;21.03;57.43;102056.69;5039488;28;45506;-91
2022/06/11 07:23:06;;;;;;;;;2.75;2.00;;;;;21.10;57.08;102064.31;5032833;28;45543;-87
2022/06/11 07:25:31;;;;;;;;;3.25;2.00;;;;;21.15;56.04;102056.97;5031499;28;47282;-87
2022/06/11 07:28:02;;;;;;;;;2.00;2.00;;;;;21.17;55.33;102052.47;5032393;28;45557;-85
2022/06/11 07:30:29;;;;;;;;;2.00;2.00;;;;;21.24;55.30;102062.63;5036197;28;45299;-86
2022/06/11 07:33:26;;;;;;;;;3.25;1.75;;;;;21.37;55.28;102062.84;5031986;28;45532;-87
2022/06/11 07:35:53;;;;;;;;;3.00;2.00;;;;;21.43;54.82;102059.00;4998586;28;45608;-85
2022/06/11 07:38:19;;;;;;;;;2.00;2.00;;;;;21.56;54.91;102061.88;4979589;28;45847;-86
2022/06/11 07:40:57;;;;;;;;;3.00;2.00;;;;;21.67;54.62;102062.16;5013677;28;45563;-94
2022/06/11 07:43:23;;;;;;;;;2.75;1.25;;;;;21.73;54.14;102061.84;5016701;28;44802;-88
2022/06/11 07:45:49;;;;;;;;;2.00;1.75;;;;;21.88;54.14;102064.56;4995562;28;45584;-84
2022/06/11 07:48:15;;;;;;;;;5.00;3.00;;;;;21.94;53.68;102066.88;5013838;28;45389;-84
2022/06/11 07:50:43;;;;;;;;;4.50;2.00;;;;;21.97;53.84;102064.03;4996668;28;45491;-85
2022/06/11 07:53:09;;;;;;;;;3.25;1.25;;;;;22.00;53.71;102064.72;4996739;28;45393;-85
2022/06/11 07:55:37;;;;;;;;;3.00;2.00;;;;;22.07;53.91;102065.25;5012631;28;46205;-87
2022/06/11 07:58:03;;;;;;;;;3.00;2.50;;;;;22.09;53.53;102054.56;5013376;28;45551;-87
2022/06/11 08:00:35;;;;;;;;;2.75;2.00;;;;;22.08;53.56;102056.34;4997389;28;45299;-84
2022/06/11 08:03:01;;;;;;;;;2.50;1.75;;;;;22.09;53.78;102054.56;5013452;28;45417;-86
2022/06/11 08:05:47;;;;;;;;;3.25;3.00;;;;;22.14;53.60;102061.31;4997264;28;46470;-94
2022/06/11 08:08:22;;;;;;;;;3.75;2.00;;;;;22.15;53.54;102056.84;4981097;28;45862;-90
2022/06/11 08:10:58;;;;;;;;;2.50;2.25;;;;;22.10;53.87;102053.59;4998713;28;45358;-89
2022/06/11 08:13:31;;;;;;;;;2.00;2.00;;;;;22.11;53.94;102061.47;5020042;28;45329;-89
2022/06/11 08:16:06;;;;;;;;;2.00;2.00;;;;;22.02;52.95;102062.84;5035822;28;47138;-94
2022/06/11 08:18:54;;;;;;;;;4.00;2.00;;;;;21.90;53.75;102047.66;5036158;28;45757;-96
2022/06/11 08:21:20;;;;;;;;;4.25;2.00;;;;;21.98;53.81;102056.00;5034384;28;45457;-87
2022/06/11 08:23:45;;;;;;;;;1.50;1.50;;;;;22.13;53.58;102054.28;5033992;28;45419;-86
2022/06/11 08:26:11;;;;;;;;;2.75;2.75;;;;;22.29;53.57;102046.34;5032052;28;46308;-86
2022/06/11 08:28:36;;;;;;;;;5.50;2.25;;;;;22.46;53.74;102055.13;5038671;28;65400;-86
2022/06/11 08:31:05;;;;;;;;;4.50;3.00;;;;;22.53;53.23;102049.38;5032199;28;45891;-89
2022/06/11 08:33:31;;;;;;;;;2.75;2.25;;;;;22.63;53.10;102051.47;5034088;28;45485;-85
2022/06/11 08:35:57;;;;;;;;;4.00;2.25;;;;;22.72;52.44;102053.59;5033121;28;45491;-86
2022/06/11 08:38:22;;;;;;;;;4.00;3.00;;;;;22.74;52.22;102059.66;5029296;28;69019;-86
2022/06/11 08:40:53;;;;;;;;;4.50;3.00;;;;;22.62;51.83;102053.25;5021686;28;62963;-85
2022/06/11 08:43:28;;;;;;;;;3.00;3.00;;;;;22.48;51.96;102047.94;5033243;28;45563;-86
2022/06/11 08:46:23;;;;;;;;;3.50;3.00;;;;;22.44;52.87;102047.25;5032729;28;46454;-92
2022/06/11 08:49:04;;;;;;;;;3.00;3.00;;;;;22.57;52.43;102045.59;5033950;28;45364;-88
2022/06/11 08:51:42;;;;;;;;;2.25;2.00;;;;;22.63;51.89;102044.38;5030863;28;45423;-86
2022/06/11 08:54:19;;;;;;;;;4.00;4.00;;;;;22.56;51.87;102040.38;5064081;28;45657;-84
2022/06/11 08:56:53;;;;;;;;;2.00;2.00;;;;;22.40;52.24;102040.44;5032762;28;45625;-85
2022/06/11 08:59:37;;;;;;;;;4.00;3.00;;;;;22.32;52.26;102040.84;5032446;28;45526;-84
2022/06/11 09:02:37;;;;;;;;;5.00;2.50;;;;;22.29;52.81;102034.88;5033161;28;45317;-84
2022/06/11 09:05:21;;;;;;;;;3.00;3.00;;;;;22.29;52.98;102033.09;5013155;28;45678;-90
2022/06/11 09:08:15;;;;;;;;;4.00;3.75;;;;;22.33;53.04;102033.78;4997774;28;46644;-88
2022/06/11 09:10:50;;;;;;;;;4.00;4.00;;;;;22.21;52.69;102032.63;4996484;28;45698;-87
2022/06/11 09:13:21;;;;;;;;;5.50;3.00;;;;;22.08;52.63;102028.97;5011240;28;45548;-87
2022/06/11 09:15:59;;;;;;;;;5.50;4.25;;;;;21.94;53.78;102033.28;5012853;28;45508;-87
2022/06/11 09:18:37;;;;;;;;;7.25;4.50;;;;;21.95;54.13;102029.69;4994450;28;45264;-89
2022/06/11 09:21:08;;;;;;;;;3.75;3.25;;;;;22.12;53.58;102026.06;5029004;28;45384;-88
2022/06/11 09:23:52;;;;;;;;;5.00;2.50;;;;;22.28;54.19;102030.53;5012840;28;45481;-87
2022/06/11 09:26:43;;;;;;;;;4.50;2.25;;;;;22.50;53.25;102024.81;5013560;28;45589;-88
2022/06/11 09:29:13;;;;;;;;;4.25;4.00;;;;;22.66;53.69;102022.09;5014068;28;46277;-86
2022/06/11 09:31:44;;;;;;;;;3.00;3.00;;;;;22.84;53.14;102026.28;4994673;28;47098;-87
2022/06/11 09:34:32;;;;;;;;;6.75;3.00;;;;;23.01;53.12;102038.53;5012360;28;45687;-86
2022/06/11 09:37:07;;;;;;;;;3.75;3.00;;;;;23.12;52.43;102027.28;4994568;28;45574;-86
2022/06/11 09:39:40;;;;;;;;;5.00;4.00;;;;;23.23;51.68;102030.16;5011045;28;45585;-86
2022/06/11 09:42:14;;;;;;;;;3.00;3.00;;;;;23.29;51.23;102027.13;5030023;28;45229;-86
2022/06/11 09:44:48;;;;;;;;;3.75;3.75;;;;;23.37;50.91;102024.84;5032167;28;45360;-86
2022/06/11 09:47:25;;;;;;;;;3.50;3.50;;;;;23.43;51.53;102028.06;5030954;28;45476;-86
2022/06/11 09:50:48;;;;;;;;;4.50;4.25;;;;;23.52;51.79;102027.47;5025810;28;45600;-86
2022/06/11 09:53:26;;;;;;;;;6.00;3.50;;;;;23.61;51.71;102024.22;4992180;28;45864;-86
2022/06/11 09:56:01;;;;;;;;;6.75;6.00;;;;;23.58;51.08;102025.25;4976418;28;45561;-86
2022/06/11 09:58:36;;;;;;;;;3.75;2.50;;;;;23.56;51.54;102027.16;4992903;28;45421;-86
2022/06/11 10:01:04;;;;;;;;;5.50;4.50;;;;;23.68;50.64;102022.03;4961298;28;47071;-86
2022/06/11 10:03:38;;;;;;;;;3.75;3.75;;;;;23.82;50.39;102034.47;4956778;28;45701;-87
2022/06/11 10:06:09;;;;;;;;;5.25;4.25;;;;;23.76;50.60;102028.56;4993781;28;45377;-86
2022/06/11 10:08:48;;;;;;;;;3.25;3.25;;;;;23.74;51.09;102025.16;4960752;28;45467;-85
2022/06/11 10:11:37;;;;;;;;;6.25;4.25;;;;;23.83;50.66;102028.19;4977608;28;45577;-87
2022/06/11 10:14:28;;;;;;;;;4.00;3.25;;;;;23.90;50.25;102026.84;4977426;28;45795;-87
2022/06/11 10:17:07;;;;;;;;;4.50;3.00;;;;;23.87;50.31;102033.22;4976357;28;45588;-86
2022/06/11 10:20:00;;;;;;;;;3.75;3.75;;;;;23.88;50.07;102032.25;4993116;28;45560;-83
2022/06/11 10:22:33;;;;;;;;;5.75;3.00;;;;;23.88;50.10;102034.06;4970066;28;45480;-82
2022/06/11 10:25:10;;;;;;;;;4.00;2.50;;;;;23.93;50.85;102031.97;5018134;28;45523;-83
2022/06/11 10:27:42;;;;;;;;;4.50;2.75;;;;;24.03;50.16;102033.06;5031460;28;45593;-82
2022/06/11 10:30:18;;;;;;;;;4.25;3.00;;;;;24.10;50.65;102029.03;5033775;28;45455;-82
2022/06/11 10:32:47;;;;;;;;;5.50;3.50;;;;;24.17;51.54;102037.47;5037271;28;46454;-82
2022/06/11 10:35:17;;;;;;;;;5.25;4.25;;;;;24.28;50.08;102026.13;5037726;28;57859;-82
2022/06/11 10:37:47;;;;;;;;;3.75;2.50;;;;;24.31;49.28;102025.91;5023091;28;45412;-82
2022/06/11 10:40:21;;;;;;;;;3.50;2.50;;;;;24.29;49.12;102030.50;5045086;28;45466;-82
2022/06/11 10:42:46;;;;;;;;;5.00;4.00;;;;;24.20;49.21;102021.34;5032636;28;45556;-83
2022/06/11 10:45:16;;;;;;;;;5.00;4.00;;;;;24.05;48.75;102023.19;5032289;28;45421;-82
2022/06/11 10:47:46;;;;;;;;;2.00;2.00;;;;;23.88;49.27;102026.94;5037132;28;45396;-82
2022/06/11 10:50:11;;;;;;;;;2.25;2.25;;;;;23.87;49.34;102027.91;5034691;28;45657;-82
2022/06/11 10:52:39;;;;;;;;;4.50;2.50;;;;;23.87;48.91;102027.91;5033867;28;45486;-81
2022/06/11 10:55:07;;;;;;;;;2.00;2.00;;;;;24.00;48.57;102027.97;5033266;28;45421;-81
2022/06/11 10:57:34;;;;;;;;;3.25;2.75;;;;;24.24;48.72;102029.97;5034833;28;45349;-83
2022/06/11 11:00:03;;;;;;;;;3.00;3.00;;;;;24.33;48.10;102029.31;5034028;28;64518;-83
2022/06/11 11:02:32;;;;;;;;;3.00;2.00;;;;;24.44;48.39;102024.16;5033162;28;47399;-80
2022/06/11 11:05:00;;;;;;;;;1.75;1.75;;;;;24.55;47.21;102026.09;5033084;28;45779;-81
2022/06/11 11:07:28;;;;;;;;;4.50;2.00;;;;;24.71;48.03;102023.25;5019833;28;45491;-81
2022/06/11 11:09:58;;;;;;;;;3.00;2.00;;;;;24.93;46.73;102018.16;5032584;28;45366;-82
2022/06/11 11:12:32;;;;;;;;;2.00;2.00;;;;;25.09;45.79;102014.41;5062903;28;46454;-83
2022/06/11 11:15:12;;;;;;;;;2.00;2.00;;;;;25.20;46.66;102011.81;5035588;28;45737;-84
2022/06/11 11:17:45;;;;;;;;;2.00;2.00;;;;;25.32;45.31;102018.16;5031687;28;45377;-84
2022/06/11 11:20:32;;;;;;;;;3.25;2.50;;;;;25.41;46.34;102017.50;5028419;28;45479;-85
2022/06/11 11:23:03;;;;;;;;;5.50;2.00;;;;;25.49;46.86;102015.09;5030853;28;46319;-84
2022/06/11 11:25:39;;;;;;;;;2.00;2.00;;;;;25.50;45.84;102013.28;5034081;28;45543;-87
2022/06/11 11:28:07;;;;;;;;;2.25;1.75;;;;;25.47;45.09;102011.72;5033500;28;45450;-85
2022/06/11 11:30:38;;;;;;;;;2.75;2.00;;;;;25.43;45.22;102020.06;5018640;28;45570;-85
2022/06/11 11:33:24;;;;;;;;;2.50;2.25;;;;;25.58;45.84;102010.09;5034114;28;50629;-84
2022/06/11 11:36:00;;;;;;;;;3.00;1.00;;;;;25.85;43.90;102009.88;5032706;28;45395;-85
2022/06/11 11:38:26;;;;;;;;;3.25;2.00;;;;;26.01;43.20;102007.81;5031889;28;45518;-82
2022/06/11 11:41:02;;;;;;;;;2.00;2.00;;;;;26.04;43.25;102002.25;5031742;28;45485;-83
2022/06/11 11:43:40;;;;;;;;;3.75;2.00;;;;;26.02;43.42;101997.97;5031204;28;45317;-85
2022/06/11 11:46:12;;;;;;;;;1.75;1.75;;;;;25.96;44.41;102007.28;5033234;28;45890;-82